Tiempo atmosférico en la estación meteorológica de Aller, Asturias (750 m.)

Fecha
DESCASC
Temp. máxima en grados centígrados (hora)
DESCASC
Temp. mínima en grados centígrados (hora)
DESCASC
Temp. media en grados centígrados
DESCASC
Racha de viento máxima en m/sg (hora)
DESCASC
Velocidad máxima media en intervalos de 10 minutos(hora)
DESCASC
Precipitaciones diarias en mm
DESCASC
Precipitaciones de 00:00 a 06:00 en mm
DESCASC
Precipitaciones de 06:00 a 12:00 en mm
DESCASC
Precipitaciones de 12:00 a 18:00 en mm
DESCASC
Precipitaciones de 18:00 a 24:00 en mm
DESCASC
19-10-2017 17.5 (16:20) 4.2 (06:20) 10.8 5.28 (23:50) 2.22 (21:10) 0 0 0 0 0
18-10-2017 13 (04:10) 8.9 (23:59) 10.9 9.17 (04:10) 2.78 (04:10) 6.6 0.2 0.4 5.6 0.4
17-10-2017 18.3 (02:10) 9.8 (23:40) 14 10.28 (11:40) 2.78 (02:00) 14.8 1.2 9.6 4 0
16-10-2017 22.7 (04:30) 12 (23:50) 17.4 11.67 (18:40) 4.44 (18:40) 1 0 0 0.6 0.4
15-10-2017 27.5 (15:40) 14.2 (00:00) 20.8 11.94 (20:50) 5.83 (20:50) 0 0 0 0 0
14-10-2017 26.4 (14:30) 8.2 (00:00) 17.3 3.61 (06:00) 2.78 (19:30) 0 0 0 0 0
13-10-2017 24.6 (14:30) 8.2 (00:00) 16.4 7.22 (16:30) 3.06 (15:40) 0 0 0 0 0
12-10-2017 25.5 (15:20) 5.6 (00:00) 15.5 4.17 (17:10) 2.5 (19:00) 0 0 0 0 0
11-10-2017 25.7 (14:40) 6.5 (00:00) 16.1 6.39 (16:20) 3.06 (16:20) 0 0 0 0 0
10-10-2017 24.3 (15:00) 5.1 (00:00) 14.7 3.61 (19:00) 2.5 (19:00) 0 0 0 0 0
09-10-2017 22.5 (15:30) 5.2 (00:00) 13.8 3.61 (06:10) 2.5 (21:10) 0 0 0 0 0
08-10-2017 23.1 (15:30) 5.8 (00:00) 14.5 3.61 (13:20) 2.22 (09:20) 0 0 0 0 0
07-10-2017 22.9 (15:40) 4.4 (00:00) 13.6 3.89 (19:30) 2.78 (20:50) 0 0 0 0 0
06-10-2017 21.3 (16:30) 7.3 (00:00) 14.3 6.11 (16:30) 2.78 (16:00) 0 0 0 0 0
05-10-2017 20.9 (15:40) 9.8 (00:00) 15.3 5.56 (16:40) 2.78 (17:10) 0 0 0 0 0
04-10-2017 22.5 (14:40) 9.6 (00:00) 16.1 6.11 (15:10) 2.78 (14:50) 0 0 0 0 0
03-10-2017 23.4 (15:10) 11.9 (00:00) 17.6 6.11 (17:00) 2.78 (16:00) 0 0 0 0 0
02-10-2017 24.2 (16:10) 15.3 (00:00) 19.8 4.17 (15:50) 1.94 (15:50) -- -- -- 0 0
01-10-2017 21.2 (16:30) 10.4 (00:00) 15.8 3.61 (19:00) 1.67 (19:10) 0 0 0 0 0
30-09-2017 17.4 (15:50) 11.9 (00:00) 14.6 5.28 (16:50) 2.5 (16:50) 0.8 0.4 0.4 0 0
29-09-2017 22.7 (15:50) 9.3 (00:00) 16 6.39 (14:40) 3.33 (14:20) 0.6 0 0 0 0.6
28-09-2017 26.5 (15:30) 9.8 (00:00) 18.2 6.94 (15:00) 2.78 (08:40) 0 0 0 0 0
27-09-2017 23.5 (15:50) 8.1 (00:00) 15.8 6.11 (16:40) 2.78 (16:40) 0 0 0 0 0
26-09-2017 21.3 (16:10) 6.1 (00:00) 13.7 5.56 (16:00) 2.5 (16:10) 0 0 0 0 0
25-09-2017 17.7 (15:50) 11.6 (00:00) 14.7 5.28 (16:00) 2.78 (16:00) 0.2 0.2 0 0 0
24-09-2017 25.7 (14:20) 8.5 (00:00) 17.1 7.22 (23:00) 3.33 (23:00) 2.6 0 0 0 2.6
23-09-2017 25.2 (14:50) 9.6 (00:00) 17.4 4.72 (18:30) 2.22 (18:20) 0 0 0 0 0
22-09-2017 19.1 (16:50) 10.6 (00:00) 14.9 4.17 (17:10) 2.22 (17:40) 0.6 0.4 0.2 0 0
21-09-2017 18.2 (13:30) 8.6 (00:00) 13.4 5 (15:10) 2.5 (14:40) 0.8 0 0 0 0.8
20-09-2017 22.2 (15:50) 5.6 (00:00) 13.9 4.72 (14:50) 2.5 (14:20) 0 0 0 0 0

Gráficas

Temp. máximas Temp. mínimas Temp. medias Precipitaciones Rachas de viento máximas Velocidades máximas media en intervalos de 10 minutos

Datos horarios

Fecha y hora oficial Temperatura (ºC) Velocidad del viento (km/h) Dirección del viento Racha (km/h) Dirección de racha Precipitación (mm) Presión (hPa) Tendencia (hPa) Humedad (%)
2017-10-19 23:00:00 14.4 6 Sudeste 18 Sudeste 0 -- -- 73
2017-10-19 22:00:00 14.3 4 Este 17 Sudeste 0 -- -- 77
2017-10-19 21:00:00 14.2 7 Sudeste 15 Sudeste 0 -- -- 75
2017-10-19 20:00:00 14 5 Este 11 Este 0 -- -- 80
2017-10-19 19:00:00 15.3 3 Este 11 Sudeste 0 -- -- 74
2017-10-19 18:00:00 16.5 3 Sudeste 11 Sur 0 -- -- 68
2017-10-19 17:00:00 16.8 0 Calma 5 Noroeste 0 -- -- 70
2017-10-19 16:00:00 17.3 4 Noroeste 8 Noroeste 0 -- -- 64
2017-10-19 15:00:00 17 0 Calma 4 Noroeste 0 -- -- 66
2017-10-19 14:00:00 15.6 0 Calma 11 Noroeste 0 -- -- 67
2017-10-19 13:00:00 14.7 4 Noroeste 10 Noroeste 0 -- -- 67
2017-10-19 12:00:00 12 3 Noroeste 7 Sudeste 0 -- -- 85
2017-10-19 11:00:00 8.2 5 Sudeste 12 Sudeste 0 -- -- 99
2017-10-19 10:00:00 4.8 2 Sudeste 8 Sudeste 0 -- -- 100
2017-10-19 09:00:00 4.5 0 Calma 10 Sur 0 -- -- 99
2017-10-19 08:00:00 4.4 0 Calma 11 Sudeste 0 -- -- 99
2017-10-19 07:00:00 4.5 4 Sudeste 10 Sudeste 0 -- -- 100
2017-10-19 06:00:00 4.4 2 Sudeste 12 Sudeste 0 -- -- 99
2017-10-19 05:00:00 4.5 5 Sudeste 9 Sudeste 0 -- -- 99
2017-10-19 04:00:00 5 4 Sudeste 9 Este 0 -- -- 99
2017-10-19 03:00:00 5.5 0 Calma 11 Sudeste 0 -- -- 98
2017-10-19 02:00:00 5.8 3 Sudeste 5 Sudeste 0 -- -- 97
2017-10-19 01:00:00 7.2 0 Calma 4 Este 0 -- -- 95
2017-10-19 00:00:00 8.9 2 Sudeste 4 Sudeste 0 -- -- 97
2017-10-18 23:00:00 9.2 0 Calma 5 Sur 0 -- -- 97
2017-10-18 22:00:00 9.2 2 Norte 13 Noroeste 0.4 -- -- 98
2017-10-18 21:00:00 9.3 0 Calma 5 Noroeste 0 -- -- 97
2017-10-18 20:00:00 9.7 0 Calma 8 Norte 0 -- -- 95
2017-10-18 19:00:00 10.4 3 Noroeste 6 Norte 0 -- -- 95
2017-10-18 18:00:00 10.2 3 Este 6 Nordeste 0.4 -- -- 90
2017-10-18 17:00:00 9.7 2 Sudeste 7 Sur 1 -- -- 92
2017-10-18 16:00:00 9.7 3 Nordeste 19 Noroeste 2.6 -- -- 94
2017-10-18 15:00:00 10.4 8 Norte 17 Noroeste 1.6 -- -- 94
2017-10-18 14:00:00 11 5 Norte 15 Norte 0 -- -- 91
2017-10-18 13:00:00 11.3 8 Norte 16 Norte 0 -- -- 87
2017-10-18 12:00:00 11.7 2 Noroeste 7 Noroeste 0 -- -- 83
2017-10-18 11:00:00 11.1 3 Sudeste 8 Este 0 -- -- 87
2017-10-18 10:00:00 10.3 3 Sudeste 10 Sudeste 0 -- -- 88
2017-10-18 09:00:00 9.9 2 Nordeste 14 Sudeste 0 -- -- 93
2017-10-18 08:00:00 9.7 4 Sudeste 8 Este 0.4 -- -- 94
2017-10-18 07:00:00 10.1 4 Sudeste 9 Este 0 -- -- 92
2017-10-18 06:00:00 10.5 2 Norte 8 Sur 0.2 -- -- 91
2017-10-18 05:00:00 11.5 0 Calma 33 Sudeste 0 -- -- 85
2017-10-18 04:00:00 12.7 9 Nordeste 29 Este 0 -- -- 63
2017-10-18 03:00:00 11.1 5 Sur 14 Nordeste 0 -- -- 79
2017-10-18 02:00:00 10.4 2 Este 11 Sudeste 0 -- -- 87
2017-10-18 01:00:00 10.5 2 Sudeste 7 Sur 0 -- -- 86
2017-10-18 00:00:00 9.9 2 Este 6 Sur 0 -- -- 88
2017-10-17 23:00:00 10.4 0 Calma 12 Noroeste 0 -- -- 82
2017-10-17 22:00:00 11.5 3 Sudoeste 22 Este 0 -- -- 77
2017-10-17 21:00:00 12.9 4 Sudeste 24 Este 0 -- -- 69
2017-10-17 20:00:00 13.2 3 Noroeste 11 Este 0 -- -- 75
2017-10-17 19:00:00 15.4 5 Sudeste 24 Sudeste 0 -- -- 62
2017-10-17 18:00:00 16.6 3 Sudeste 24 Este 0 -- -- 80
2017-10-17 17:00:00 15.8 7 Este 21 Este 0.2 -- -- 78
2017-10-17 16:00:00 16 3 Noroeste 8 Sudoeste 0 -- -- 92
2017-10-17 15:00:00 15.4 2 Noroeste 8 Noroeste 1.8 -- -- 94
2017-10-17 14:00:00 16.1 2 Noroeste 20 Sudeste 1.8 -- -- 87
2017-10-17 13:00:00 17.2 8 Sudeste 30 Sudeste 0.2 -- -- 73
2017-10-17 12:00:00 16.7 9 Sudeste 37 Sudeste 0.4 -- -- 69
2017-10-17 11:00:00 14 2 Nordeste 10 Sudeste 6.4 -- -- 96
2017-10-17 10:00:00 14.1 4 Norte 22 Sudeste 2.2 -- -- 91
2017-10-17 09:00:00 14.7 4 Este 15 Sur 0 -- -- 83
2017-10-17 08:00:00 15.8 7 Este 23 Sudeste 0 -- -- 67
2017-10-17 07:00:00 13.6 5 Este 15 Este 0.6 -- -- 90
2017-10-17 06:00:00 13.8 3 Sudeste 21 Nordeste 0.8 -- -- 90
2017-10-17 05:00:00 16.5 8 Sudeste 31 Sur 0.4 -- -- 67
2017-10-17 04:00:00 15.7 3 Nordeste 16 Sur 0 -- -- 69
2017-10-17 03:00:00 15.9 3 Sudeste 19 Sudeste 0 -- -- 68
2017-10-17 02:00:00 17.5 10 Este 27 Este 0 -- -- 60
2017-10-17 01:00:00 12.1 2 Sudeste 8 Sudeste 0 -- -- 94
2017-10-17 00:00:00 12 3 Sudeste 11 Sudeste 0 -- -- 95
2017-10-16 23:00:00 12.3 2 Noroeste 9 Noroeste 0 -- -- 94
2017-10-16 22:00:00 12.7 0 Calma 11 Norte 0 -- -- 92
2017-10-16 21:00:00 13.2 5 Norte 14 Noroeste 0 -- -- 89
2017-10-16 20:00:00 15.5 2 Sur 20 Sur 0 -- -- 77
2017-10-16 19:00:00 16.7 8 Sudeste 42 Este 0.4 -- -- 70
2017-10-16 18:00:00 16.4 10 Este 23 Sudeste 0.6 -- -- 71
2017-10-16 17:00:00 15.2 4 Noroeste 21 Norte 0 -- -- 84
2017-10-16 16:00:00 16.6 5 Noroeste 23 Norte 0 -- -- 77
2017-10-16 15:00:00 17.1 5 Noroeste 17 Norte 0 -- -- 75
2017-10-16 14:00:00 18.7 8 Noroeste 19 Noroeste 0 -- -- 62
2017-10-16 13:00:00 20.7 3 Sur 19 Este 0 -- -- 44
2017-10-16 12:00:00 20.7 6 Sur 21 Sur 0 -- -- 40
2017-10-16 11:00:00 20.4 6 Sudeste 19 Sudeste 0 -- -- 41
2017-10-16 10:00:00 19.4 3 Este 15 Sur 0 -- -- 44
2017-10-16 09:00:00 18.8 4 Este 17 Sudeste 0 -- -- 46
2017-10-16 08:00:00 16.3 2 Noroeste 9 Este 0 -- -- 58
2017-10-16 07:00:00 19.7 3 Sudeste 29 Este 0 -- -- 47
2017-10-16 06:00:00 22 9 Este 29 Este 0 -- -- 37
2017-10-16 05:00:00 22.3 6 Este 31 Noroeste 0 -- -- 37
2017-10-16 04:00:00 20.4 4 Nordeste 20 Sur 0 -- -- 44
2017-10-16 03:00:00 18.8 3 Sudeste 19 Norte 0 -- -- 54
2017-10-16 02:00:00 18.8 2 Sur 21 Sudeste 0 -- -- 51
2017-10-16 01:00:00 17.8 3 Noroeste 9 Sudeste 0 -- -- 55
2017-10-16 00:00:00 21.3 3 Sur 26 Nordeste 0 -- -- 44
2017-10-15 23:00:00 21.4 3 Sudeste 30 Este 0 -- -- 44
2017-10-15 22:00:00 21.7 2 Nordeste 36 Sur 0 -- -- 44
2017-10-15 21:00:00 24.9 13 Sudeste 43 Sudeste 0 -- -- 35
2017-10-15 20:00:00 20 0 Calma 12 Sur 0 -- -- 52
2017-10-15 19:00:00 21.8 3 Nordeste 10 Norte 0 -- -- 48
2017-10-15 18:00:00 24.8 5 Noroeste 31 Sudeste 0 -- -- 35
2017-10-15 17:00:00 26.3 9 Sudeste 26 Sur 0 -- -- 32
2017-10-15 16:00:00 26.6 3 Sur 25 Sur 0 -- -- 33
2017-10-15 15:00:00 25.8 6 Sudeste 28 Sudeste 0 -- -- 35
2017-10-15 14:00:00 25.7 7 Sudeste 19 Este 0 -- -- 34
2017-10-15 13:00:00 25.4 8 Sudeste 35 Sudeste 0 -- -- 34
2017-10-15 12:00:00 23.4 5 Sudeste 31 Sur 0 -- -- 38
2017-10-15 11:00:00 23.2 7 Sudeste 22 Sudeste 0 -- -- 36
2017-10-15 10:00:00 22.9 6 Sudeste 22 Sudeste 0 -- -- 36
2017-10-15 09:00:00 22.5 5 Sudeste 21 Sur 0 -- -- 36
2017-10-15 08:00:00 22.9 3 Sur 23 Sur 0 -- -- 39
2017-10-15 07:00:00 23.4 7 Sudeste 29 Sudeste 0 -- -- 34
2017-10-15 06:00:00 23 9 Sudeste 27 Sudeste 0 -- -- 35
2017-10-15 05:00:00 16.6 0 Calma 13 Sudeste 0 -- -- 62
2017-10-15 04:00:00 15.6 3 Sudeste 9 Sudeste 0 -- -- 69
2017-10-15 03:00:00 16.6 3 Sudeste 12 Sur 0 -- -- 66
2017-10-15 02:00:00 17.5 5 Sudeste 12 Este 0 -- -- 57
2017-10-15 01:00:00 15.7 7 Sudeste 13 Sudeste 0 -- -- 61
2017-10-15 00:00:00 14.2 8 Sudeste 12 Sudeste 0 -- -- 67
2017-10-14 23:00:00 13.5 6 Sudeste 12 Sudeste 0 -- -- 73
2017-10-14 22:00:00 13.7 7 Sudeste 12 Sur 0 -- -- 72
2017-10-14 21:00:00 14.2 7 Sudeste 11 Sudeste 0 -- -- 73
2017-10-14 20:00:00 15.3 7 Sudeste 13 Sudeste 0 -- -- 71
2017-10-14 19:00:00 17.1 7 Sudeste 10 Sudeste 0 -- -- 66
2017-10-14 18:00:00 18.5 4 Sudeste 13 Sudeste 0 -- -- 56
2017-10-14 17:00:00 19.2 5 Sudeste 9 Sudeste 0 -- -- 59
2017-10-14 16:00:00 25.2 2 Sur 7 Sudeste 0 -- -- 37
2017-10-14 15:00:00 26.1 3 Sur 6 Sur 0 -- -- 33
2017-10-14 14:00:00 26 3 Sur 8 Sur 0 -- -- 36
2017-10-14 13:00:00 23.9 2 Sur 6 Sur 0 -- -- 45
2017-10-14 12:00:00 19.6 3 Sudeste 9 Nordeste 0 -- -- 53
2017-10-14 11:00:00 13.4 3 Sudeste 12 Sudeste 0 -- -- 80
2017-10-14 10:00:00 9.2 4 Sudeste 12 Sudeste 0 -- -- 92
2017-10-14 09:00:00 9 2 Sudeste 11 Sudeste 0 -- -- 90
2017-10-14 08:00:00 8.5 4 Sudeste 12 Sudeste 0 -- -- 92
2017-10-14 07:00:00 8.7 4 Sudeste 11 Sudeste 0 -- -- 90
2017-10-14 06:00:00 9.6 6 Sudeste 13 Sur 0 -- -- 85
2017-10-14 05:00:00 8.2 4 Sudeste 10 Sur 0 -- -- 91
2017-10-14 04:00:00 8.4 2 Sudeste 12 Sudeste 0 -- -- 90
2017-10-14 03:00:00 9.1 3 Sudeste 10 Sudeste 0 -- -- 90
2017-10-14 02:00:00 8.8 5 Sudeste 10 Sudeste 0 -- -- 94
2017-10-14 01:00:00 9.2 9 Sudeste 11 Sudeste 0 -- -- 95
2017-10-14 00:00:00 9.8 4 Sudeste 9 Sudeste 0 -- -- 94
2017-10-13 23:00:00 10.3 0 Calma 10 Sudeste 0 -- -- 91
2017-10-13 22:00:00 11.2 4 Sudeste 9 Sudeste 0 -- -- 92
2017-10-13 21:00:00 12.2 4 Sudeste 10 Sudeste 0 -- -- 88
2017-10-13 20:00:00 14 5 Sudeste 9 Sur 0 -- -- 85
2017-10-13 19:00:00 16.3 4 Sudeste 8 Norte 0 -- -- 78
2017-10-13 18:00:00 18.4 6 Norte 15 Norte 0 -- -- 71
2017-10-13 17:00:00 20.1 7 Noroeste 26 Noroeste 0 -- -- 63
2017-10-13 16:00:00 23.6 9 Noroeste 21 Noroeste 0 -- -- 44
2017-10-13 15:00:00 24.6 9 Noroeste 19 Noroeste 0 -- -- 39
2017-10-13 14:00:00 24.2 3 Noroeste 5 Norte 0 -- -- 35
2017-10-13 13:00:00 23.1 3 Sur 9 Sudeste 0 -- -- 43
2017-10-13 12:00:00 19.3 4 Sudeste 9 Sudeste 0 -- -- 50
2017-10-13 11:00:00 14 4 Sudeste 12 Sudeste 0 -- -- 63
2017-10-13 10:00:00 9.9 6 Sudeste 12 Sudeste 0 -- -- 78
2017-10-13 09:00:00 9.1 5 Sudeste 13 Sudeste 0 -- -- 77
2017-10-13 08:00:00 8.8 4 Sudeste 11 Sudeste 0 -- -- 81
2017-10-13 07:00:00 8.2 4 Sudeste 8 Sur 0 -- -- 83
2017-10-13 06:00:00 8.6 3 Sudeste 9 Sudeste 0 -- -- 84
2017-10-13 05:00:00 9.1 3 Sudeste 10 Sudeste 0 -- -- 80
2017-10-13 04:00:00 9.3 3 Sudeste 14 Sudeste 0 -- -- 80
2017-10-13 03:00:00 9.1 5 Sudeste 11 Sudeste 0 -- -- 82
2017-10-13 02:00:00 9.4 4 Sudeste 13 Sudeste 0 -- -- 81
2017-10-13 01:00:00 10.2 7 Sudeste 12 Sudeste 0 -- -- 74
2017-10-13 00:00:00 9.5 3 Sudeste 9 Sudeste 0 -- -- 83
2017-10-12 23:00:00 10.7 4 Sudeste 12 Sudeste 0 -- -- 78
2017-10-12 22:00:00 12.1 6 Sudeste 13 Sudeste 0 -- -- 73
2017-10-12 21:00:00 12.8 6 Sudeste 13 Sudeste 0 -- -- 75
2017-10-12 20:00:00 14.3 6 Sudeste 12 Sudeste 0 -- -- 73
2017-10-12 19:00:00 15.8 9 Sudeste 11 Sudeste 0 -- -- 70
2017-10-12 18:00:00 19.4 0 Calma 15 Norte 0 -- -- 59
2017-10-12 17:00:00 20.3 5 Noroeste 13 Norte 0 -- -- 52
2017-10-12 16:00:00 24.3 3 Sur 11 Sudeste 0 -- -- 32
2017-10-12 15:00:00 25.3 2 Oeste 6 Sur 0 -- -- 31
2017-10-12 14:00:00 24.2 3 Noroeste 8 Oeste 0 -- -- 29
2017-10-12 13:00:00 22.6 3 Sur 12 Sudeste 0 -- -- 36
2017-10-12 12:00:00 18.5 5 Sudeste 11 Sur 0 -- -- 56
2017-10-12 11:00:00 12.4 6 Sudeste 12 Sudeste 0 -- -- 76
2017-10-12 10:00:00 7.4 8 Sudeste 14 Sudeste 0 -- -- 91
2017-10-12 09:00:00 5.6 3 Sudeste 9 Sudeste 0 -- -- 96
2017-10-12 08:00:00 6.2 3 Nordeste 8 Sur 0 -- -- 95
2017-10-12 07:00:00 7.6 2 Sudeste 9 Sudeste 0 -- -- 95
2017-10-12 06:00:00 9 0 Calma 7 Sudeste 0 -- -- 97
2017-10-12 05:00:00 9.1 5 Sudeste 10 Sudeste 0 -- -- 96
2017-10-12 04:00:00 8.4 2 Sudeste 10 Sudeste 0 -- -- 94
2017-10-12 03:00:00 9.1 6 Sudeste 10 Este 0 -- -- 94
2017-10-12 02:00:00 8.2 5 Sudeste 10 Sudeste 0 -- -- 94
2017-10-12 01:00:00 8.6 3 Sudeste 9 Sudeste 0 -- -- 92
2017-10-12 00:00:00 9.7 5 Sudeste 10 Sur 0 -- -- 90
2017-10-11 23:00:00 11.3 4 Sudeste 9 Sudeste 0 -- -- 87
2017-10-11 22:00:00 12 4 Sudeste 10 Sudeste 0 -- -- 89
2017-10-11 21:00:00 11.5 2 Sudeste 6 Sudeste 0 -- -- 87
2017-10-11 20:00:00 14.5 4 Norte 10 Norte 0 -- -- 82
2017-10-11 19:00:00 16.6 0 Calma 13 Norte 0 -- -- 72
2017-10-11 18:00:00 18.3 5 Norte 15 Norte 0 -- -- 64
2017-10-11 17:00:00 20.2 7 Noroeste 23 Noroeste 0 -- -- 56
2017-10-11 16:00:00 24.1 8 Noroeste 18 Noroeste 0 -- -- 40
2017-10-11 15:00:00 25.5 3 Sur 11 Noroeste 0 -- -- 27
2017-10-11 14:00:00 25.2 5 Sur 18 Sudeste 0 -- -- 25
2017-10-11 13:00:00 23.9 4 Sudoeste 13 Sur 0 -- -- 26
2017-10-11 12:00:00 18.9 2 Este 12 Sudeste 0 -- -- 43
2017-10-11 11:00:00 13.5 6 Sudeste 13 Sudeste 0 -- -- 59
2017-10-11 10:00:00 8.7 8 Sudeste 12 Sudeste 0 -- -- 75
2017-10-11 09:00:00 7.9 2 Sur 12 Sudeste 0 -- -- 74
2017-10-11 08:00:00 8.2 10 Sudeste 13 Sudeste 0 -- -- 69
2017-10-11 07:00:00 8.2 9 Sudeste 13 Sudeste 0 -- -- 69
2017-10-11 06:00:00 6.6 0 Calma 8 Sudeste 0 -- -- 83
2017-10-11 05:00:00 6.9 5 Sudeste 9 Sudeste 0 -- -- 78
2017-10-11 04:00:00 6.7 2 Sudeste 5 Sur 0 -- -- 80
2017-10-11 03:00:00 6.9 3 Sudeste 7 Sudeste 0 -- -- 78
2017-10-11 02:00:00 7.3 3 Sudeste 8 Sudeste 0 -- -- 77
2017-10-11 01:00:00 7.7 4 Sudeste 9 Sudeste 0 -- -- 76
2017-10-11 00:00:00 8.4 6 Sudeste 13 Sudeste 0 -- -- 74
2017-10-10 23:00:00 9.2 3 Sudeste 10 Sudeste 0 -- -- 74
2017-10-10 22:00:00 10.7 4 Sudeste 10 Sudeste 0 -- -- 65
2017-10-10 21:00:00 11.1 4 Sudeste 9 Sudeste 0 -- -- 64
2017-10-10 20:00:00 12.7 8 Sudeste 13 Sudeste 0 -- -- 62
2017-10-10 19:00:00 14.2 9 Sudeste 13 Sudeste 0 -- -- 57
2017-10-10 18:00:00 14 6 Sudeste 11 Sudeste 0 -- -- 60
2017-10-10 17:00:00 16.4 5 Sur 8 Sudoeste 0 -- -- 47
2017-10-10 16:00:00 23.1 3 Sur 6 Sudoeste 0 -- -- 28
2017-10-10 15:00:00 24.3 0 Calma 4 Sur 0 -- -- 29
2017-10-10 14:00:00 22.8 2 Sudoeste 5 Oeste 0 -- -- 33
2017-10-10 13:00:00 21.2 3 Sur 8 Sudeste 0 -- -- 35
2017-10-10 12:00:00 17 4 Sudeste 9 Sudeste 0 -- -- 54
2017-10-10 11:00:00 11.1 4 Sudeste 12 Sudeste 0 -- -- 69
2017-10-10 10:00:00 6.4 6 Sudeste 12 Sudeste 0 -- -- 85
2017-10-10 09:00:00 5.7 5 Sudeste 10 Sudeste 0 -- -- 85
2017-10-10 08:00:00 5.3 5 Sudeste 9 Sudeste 0 -- -- 86
2017-10-10 07:00:00 5.5 5 Sudeste 10 Sudeste 0 -- -- 85
2017-10-10 06:00:00 5.8 3 Sudeste 10 Sudeste 0 -- -- 84
2017-10-10 05:00:00 6 5 Sudeste 10 Sudeste 0 -- -- 83
2017-10-10 04:00:00 6.6 3 Sudeste 11 Sudeste 0 -- -- 80
2017-10-10 03:00:00 6.3 5 Sudeste 11 Sudeste 0 -- -- 81
2017-10-10 02:00:00 6.5 5 Sudeste 10 Sudeste 0 -- -- 81
2017-10-10 01:00:00 7.2 4 Sudeste 10 Sudeste 0 -- -- 80
2017-10-10 00:00:00 7.8 3 Sudeste 11 Sudeste 0 -- -- 81
2017-10-09 23:00:00 8.7 7 Sudeste 12 Sudeste 0 -- -- 79
2017-10-09 22:00:00 9.5 8 Sudeste 11 Sudeste 0 -- -- 79
2017-10-09 21:00:00 10.8 8 Sudeste 11 Sudeste 0 -- -- 78
2017-10-09 20:00:00 12.2 8 Sudeste 12 Sudeste 0 -- -- 76
2017-10-09 19:00:00 13.4 7 Sudeste 10 Sudeste 0 -- -- 73
2017-10-09 18:00:00 15.7 3 Sur 8 Noroeste 0 -- -- 68
2017-10-09 17:00:00 19.2 3 Noroeste 9 Norte 0 -- -- 50
2017-10-09 16:00:00 22.4 4 Noroeste 12 Noroeste 0 -- -- 37
2017-10-09 15:00:00 22 5 Noroeste 10 Noroeste 0 -- -- 40
2017-10-09 14:00:00 20.9 4 Noroeste 8 Oeste 0 -- -- 34
2017-10-09 13:00:00 19.3 4 Noroeste 7 Noroeste 0 -- -- 37
2017-10-09 12:00:00 16.3 2 Sudeste 9 Sudeste 0 -- -- 51
2017-10-09 11:00:00 10.7 4 Sudeste 11 Sudeste 0 -- -- 68
2017-10-09 10:00:00 6.2 6 Sudeste 12 Sudeste 0 -- -- 79
2017-10-09 09:00:00 5.7 6 Sudeste 12 Sudeste 0 -- -- 78
2017-10-09 08:00:00 5.3 4 Sudeste 10 Sudeste 0 -- -- 81
2017-10-09 07:00:00 5.7 6 Sudeste 13 Sudeste 0 -- -- 81
2017-10-09 06:00:00 5.7 6 Sudeste 12 Sudeste 0 -- -- 81
2017-10-09 05:00:00 5.8 5 Sudeste 11 Sudeste 0 -- -- 82
2017-10-09 04:00:00 5.8 3 Sudeste 8 Sudeste 0 -- -- 85
2017-10-09 03:00:00 6.6 3 Sudeste 10 Sudeste 0 -- -- 83
2017-10-09 02:00:00 7.1 3 Sudeste 11 Sudeste 0 -- -- 85
2017-10-09 01:00:00 8 5 Sudeste 11 Sudeste 0 -- -- 85
2017-10-09 00:00:00 8.8 8 Sudeste 11 Sudeste 0 -- -- 86
2017-10-08 23:00:00 9.6 6 Sudeste 10 Sudeste 0 -- -- 87
2017-10-08 22:00:00 10.5 6 Sudeste 11 Sudeste 0 -- -- 86
2017-10-08 21:00:00 11.3 8 Sudeste 13 Sudeste 0 -- -- 83
2017-10-08 20:00:00 12.5 8 Sudeste 11 Sudeste 0 -- -- 78
2017-10-08 19:00:00 13.9 5 Sudeste 9 Sudeste 0 -- -- 74
2017-10-08 18:00:00 17.1 0 Calma 12 Oeste 0 -- -- 63
2017-10-08 17:00:00 19.4 0 Calma 6 Noroeste 0 -- -- 49
2017-10-08 16:00:00 23 2 Oeste 12 Noroeste 0 -- -- 39
2017-10-08 15:00:00 22.7 4 Noroeste 13 Noroeste 0 -- -- 37
2017-10-08 14:00:00 21.6 4 Noroeste 13 Noroeste 0 -- -- 40
2017-10-08 13:00:00 20.3 4 Noroeste 10 Oeste 0 -- -- 39
2017-10-08 12:00:00 17.5 0 Calma 9 Sudeste 0 -- -- 56
2017-10-08 11:00:00 11.6 5 Sudeste 10 Sudeste 0 -- -- 68
2017-10-08 10:00:00 7.2 3 Sudeste 13 Sudeste 0 -- -- 86
2017-10-08 09:00:00 5.8 5 Sudeste 11 Sudeste 0 -- -- 89
2017-10-08 08:00:00 6.9 6 Sudeste 11 Sudeste 0 -- -- 82
2017-10-08 07:00:00 6.6 4 Sudeste 12 Sudeste 0 -- -- 85
2017-10-08 06:00:00 6.2 4 Sudeste 10 Sudeste 0 -- -- 89
2017-10-08 05:00:00 7.2 2 Sudeste 12 Sudeste 0 -- -- 85
2017-10-08 04:00:00 7.4 4 Sudeste 11 Sudeste 0 -- -- 84
2017-10-08 03:00:00 7.1 4 Sudeste 10 Sudeste 0 -- -- 87
2017-10-08 02:00:00 8 6 Sudeste 13 Sudeste 0 -- -- 83
2017-10-08 01:00:00 8.3 5 Sudeste 11 Sudeste 0 -- -- 83
2017-10-08 00:00:00 8.1 5 Sudeste 10 Sudeste 0 -- -- 84
2017-10-07 23:00:00 9.3 4 Sudeste 12 Sudeste 0 -- -- 79
2017-10-07 22:00:00 10.1 7 Sudeste 12 Sur 0 -- -- 77
2017-10-07 21:00:00 11.2 9 Sudeste 12 Sudeste 0 -- -- 73
2017-10-07 20:00:00 12.6 8 Sudeste 14 Sudeste 0 -- -- 70
2017-10-07 19:00:00 13.2 9 Sudeste 13 Sudeste 0 -- -- 66
2017-10-07 18:00:00 13.9 5 Sudeste 9 Sur 0 -- -- 68
2017-10-07 17:00:00 18.6 3 Sur 4 Oeste 0 -- -- 47
2017-10-07 16:00:00 22.5 0 Calma 6 Noroeste 0 -- -- 32
2017-10-07 15:00:00 22.1 3 Noroeste 6 Noroeste 0 -- -- 30
2017-10-07 14:00:00 20.6 3 Oeste 5 Oeste 0 -- -- 28
2017-10-07 13:00:00 19 2 Noroeste 5 Sudeste 0 -- -- 34
2017-10-07 12:00:00 15.4 0 Calma 7 Sudeste 0 -- -- 48
2017-10-07 11:00:00 9.1 2 Este 10 Sudeste 0 -- -- 74
2017-10-07 10:00:00 5.3 3 Sudeste 12 Sudeste 0 -- -- 84
2017-10-07 09:00:00 4.7 5 Sudeste 10 Sudeste 0 -- -- 82
2017-10-07 08:00:00 4.7 5 Sudeste 12 Sudeste 0 -- -- 84
2017-10-07 07:00:00 5.1 3 Sudeste 11 Sudeste 0 -- -- 87
2017-10-07 06:00:00 5.7 4 Sudeste 11 Sudeste 0 -- -- 86
2017-10-07 05:00:00 6.4 6 Sudeste 10 Sudeste 0 -- -- 84
2017-10-07 04:00:00 7.4 5 Sudeste 12 Sudeste 0 -- -- 87
2017-10-07 03:00:00 8.3 6 Sudeste 10 Sudeste 0 -- -- 90
2017-10-07 02:00:00 9.4 6 Sudeste 10 Sudeste 0 -- -- 87
2017-10-07 01:00:00 10.7 4 Sudeste 9 Sudeste 0 -- -- 87
2017-10-07 00:00:00 12.6 4 Sudeste 9 Sudeste 0 -- -- 84
2017-10-06 23:00:00 14 2 Sur 6 Noroeste 0 -- -- 89
2017-10-06 22:00:00 14.2 3 Norte 7 Norte 0 -- -- 94
2017-10-06 21:00:00 13.8 2 Sur 6 Sudeste 0 -- -- 92
2017-10-06 20:00:00 15.5 0 Calma 12 Norte 0 -- -- 86
2017-10-06 19:00:00 17 5 Norte 15 Noroeste 0 -- -- 82
2017-10-06 18:00:00 17.8 6 Norte 17 Norte 0 -- -- 78
2017-10-06 17:00:00 20.7 8 Norte 22 Norte 0 -- -- 66
2017-10-06 16:00:00 21.1 10 Noroeste 18 Noroeste 0 -- -- 63
2017-10-06 15:00:00 20.5 8 Noroeste 15 Noroeste 0 -- -- 63
2017-10-06 14:00:00 19.4 9 Noroeste 15 Noroeste 0 -- -- 66
2017-10-06 13:00:00 18 4 Noroeste 8 Noroeste 0 -- -- 56
2017-10-06 12:00:00 15.9 0 Calma 7 Sudeste 0 -- -- 69
2017-10-06 11:00:00 11.4 4 Este 9 Sudeste 0 -- -- 87
2017-10-06 10:00:00 7.7 4 Sudeste 10 Sudeste 0 -- -- 93
2017-10-06 09:00:00 7.4 5 Sudeste 12 Sudeste 0 -- -- 91
2017-10-06 08:00:00 7.8 6 Sudeste 10 Sudeste 0 -- -- 91
2017-10-06 07:00:00 8.6 4 Sudeste 12 Sur 0 -- -- 91
2017-10-06 06:00:00 9.6 3 Sudeste 11 Sudeste 0 -- -- 89
2017-10-06 05:00:00 10.8 5 Sudeste 13 Sudeste 0 -- -- 84
2017-10-06 04:00:00 11.8 5 Sudeste 13 Sudeste 0 -- -- 84
2017-10-06 03:00:00 13.4 5 Sudeste 15 Sudeste 0 -- -- 79
2017-10-06 02:00:00 14.4 4 Sudeste 10 Sudeste 0 -- -- 83
2017-10-06 01:00:00 14.7 3 Sudeste 11 Sudeste 0 -- -- 84
2017-10-06 00:00:00 15.2 0 Calma 6 Sudeste 0 -- -- 90
2017-10-05 23:00:00 15.8 0 Calma 2 Noroeste 0 -- -- 94
2017-10-05 22:00:00 16 0 Calma 6 Norte 0 -- -- 93
2017-10-05 21:00:00 16.2 0 Calma 5 Noroeste 0 -- -- 92
2017-10-05 20:00:00 16.6 0 Calma 8 Noroeste 0 -- -- 90
2017-10-05 19:00:00 17 3 Noroeste 15 Norte 0 -- -- 88
2017-10-05 18:00:00 17.4 8 Norte 20 Norte 0 -- -- 86
2017-10-05 17:00:00 20.1 9 Noroeste 20 Noroeste 0 -- -- 76
2017-10-05 16:00:00 20.6 9 Noroeste 18 Noroeste 0 -- -- 73
2017-10-05 15:00:00 20.2 9 Noroeste 14 Noroeste 0 -- -- 75
2017-10-05 14:00:00 18.8 6 Noroeste 12 Noroeste 0 -- -- 79
2017-10-05 13:00:00 16.5 4 Oeste 8 Oeste 0 -- -- 83
2017-10-05 12:00:00 13.8 0 Calma 10 Noroeste 0 -- -- 96
2017-10-05 11:00:00 12.5 0 Calma 4 Sudeste 0 -- -- 100
2017-10-05 10:00:00 11.5 3 Sudeste 10 Sudeste 0 -- -- 100
2017-10-05 09:00:00 10.5 4 Sudeste 8 Sudeste 0 -- -- 100
2017-10-05 08:00:00 10.8 3 Sudeste 7 Sudeste 0 -- -- 100
2017-10-05 07:00:00 11 3 Sudeste 9 Sudeste 0 -- -- 100
2017-10-05 06:00:00 9.8 0 Calma 7 Sudeste 0 -- -- 99
2017-10-05 05:00:00 10.8 4 Sudeste 8 Sudeste 0 -- -- 100
2017-10-05 04:00:00 11.6 4 Sudeste 7 Sudeste 0 -- -- 99
2017-10-05 03:00:00 12.2 4 Sudeste 6 Sudeste 0 -- -- 98
2017-10-05 02:00:00 13.4 4 Sudeste 6 Sudeste 0 -- -- 98
2017-10-05 01:00:00 14.4 4 Sudeste 8 Sudeste 0 -- -- 96
2017-10-05 00:00:00 14.6 4 Sudeste 9 Sudeste 0 -- -- 95
2017-10-04 23:00:00 14.2 4 Sudeste 10 Sudeste 0 -- -- 96
2017-10-04 22:00:00 13.5 4 Sudeste 8 Sudeste 0 -- -- 96
2017-10-04 21:00:00 14.4 4 Sudeste 9 Sudeste 0 -- -- 94
2017-10-04 20:00:00 16.6 0 Calma 12 Norte 0 -- -- 90
2017-10-04 19:00:00 17.2 3 Sur 8 Sudeste 0 -- -- 89
2017-10-04 18:00:00 19.3 3 Sur 15 Noroeste 0 -- -- 83
2017-10-04 17:00:00 22.1 5 Noroeste 16 Noroeste 0 -- -- 71
2017-10-04 16:00:00 22.5 9 Noroeste 22 Noroeste 0 -- -- 68
2017-10-04 15:00:00 22.2 10 Noroeste 19 Noroeste 0 -- -- 69
2017-10-04 14:00:00 20.5 2 Noroeste 6 Oeste 0 -- -- 72
2017-10-04 13:00:00 17.9 4 Oeste 9 Noroeste 0 -- -- 80
2017-10-04 12:00:00 15.5 3 Noroeste 11 Noroeste 0 -- -- 90
2017-10-04 11:00:00 13.7 4 Noroeste 9 Noroeste 0 -- -- 96
2017-10-04 10:00:00 12.4 4 Sur 7 Sudeste 0 -- -- 100
2017-10-04 09:00:00 11.5 3 Sudeste 8 Sudeste 0 -- -- 100
2017-10-04 08:00:00 9.6 0 Calma 8 Sudeste 0 -- -- 98
2017-10-04 07:00:00 10.1 4 Sudeste 8 Sudeste 0 -- -- 99
2017-10-04 06:00:00 10.6 5 Sudeste 10 Sudeste 0 -- -- 99
2017-10-04 05:00:00 10.6 4 Sudeste 10 Sudeste 0 -- -- 98
2017-10-04 04:00:00 11.2 3 Sudeste 10 Este 0 -- -- 96
2017-10-04 03:00:00 11.7 5 Sudeste 9 Sudeste 0 -- -- 96
2017-10-04 02:00:00 12.4 5 Sudeste 10 Sudeste 0 -- -- 95
2017-10-04 01:00:00 12.8 6 Sudeste 11 Sudeste 0 -- -- 92
2017-10-04 00:00:00 14.2 4 Sudeste 7 Este 0 -- -- 88
2017-10-03 23:00:00 16.4 3 Sudeste 5 Sudeste 0 -- -- 91
2017-10-03 22:00:00 16.9 2 Noroeste 6 Norte 0 -- -- 93
2017-10-03 21:00:00 17.1 0 Calma 8 Norte 0 -- -- 92
2017-10-03 20:00:00 17.5 4 Norte 8 Norte 0 -- -- 90
2017-10-03 19:00:00 18.1 4 Norte 12 Noroeste 0 -- -- 87
2017-10-03 18:00:00 19.1 6 Norte 20 Norte 0 -- -- 83
2017-10-03 17:00:00 21.1 10 Norte 22 Norte 0 -- -- 75
2017-10-03 16:00:00 23.1 10 Noroeste 20 Norte 0 -- -- 69
2017-10-03 15:00:00 23.3 5 Noroeste 14 Noroeste 0 -- -- 60
2017-10-03 14:00:00 22.6 6 Noroeste 12 Noroeste 0 -- -- 61
2017-10-03 13:00:00 21.5 2 Este 8 Sur 0 -- -- 66
2017-10-03 12:00:00 19.1 3 Noroeste 7 Noroeste 0 -- -- 70
2017-10-03 11:00:00 16.5 3 Sudeste 9 Sudeste 0 -- -- 90
2017-10-03 10:00:00 14.2 5 Sudeste 9 Sudeste 0 -- -- 97
2017-10-03 09:00:00 12.9 4 Sudeste 12 Sudeste 0 -- -- 96
2017-10-03 08:00:00 12.6 5 Sur 9 Sudeste 0 -- -- 95
2017-10-03 07:00:00 14.4 6 Sudeste 12 Sudeste 0 -- -- 93
2017-10-03 06:00:00 14.5 6 Sudeste 11 Este 0 -- -- 100
2017-10-03 05:00:00 13 6 Sudeste 11 Sudeste 0 -- -- 100
2017-10-03 04:00:00 12.3 0 Calma 8 Sudeste 0 -- -- 98
2017-10-03 03:00:00 12.9 5 Sudeste 9 Sudeste 0 -- -- 98
2017-10-03 02:00:00 13.7 6 Sudeste 10 Sur 0 -- -- 98
2017-10-03 01:00:00 14.4 6 Sudeste 9 Sudeste 0 -- -- 97
2017-10-03 00:00:00 15.3 6 Sudeste 10 Sudeste 0 -- -- 95
2017-10-02 23:00:00 16.7 4 Sudeste 9 Sur 0 -- -- 94
2017-10-02 22:00:00 18.1 3 Sudeste 6 Sudeste 0 -- -- 94
2017-10-02 21:00:00 18.9 0 Calma 4 Norte 0 -- -- 92
2017-10-02 20:00:00 19.9 3 Norte 10 Norte 0 -- -- 90
2017-10-02 19:00:00 20.6 6 Norte 12 Noroeste 0 -- -- 86
2017-10-02 18:00:00 21.1 4 Noroeste 11 Norte 0 -- -- 84
2017-10-02 17:00:00 24.1 4 Noroeste 10 Noroeste 0 -- -- 74
2017-10-02 16:00:00 24.1 6 Noroeste 15 Noroeste 0 -- -- 74
2017-10-02 15:00:00 23.4 2 Noroeste 7 Noroeste 0 -- -- 74
2017-10-02 14:00:00 22.4 4 Noroeste 8 Sudeste 0 -- -- 76
2017-10-02 13:00:00 21.1 3 Sudeste 7 Sur 0 -- -- 81
2017-10-02 12:00:00 18 3 Norte 8 Norte 0.2 -- -- 97
2017-10-02 11:00:00 17.1 0 Calma 0 Calma 0.2 -- -- 99
2017-10-02 10:00:00 16.1 0 Calma 0 Calma 0.2 -- -- 100
2017-10-02 09:00:00 15.6 0 Calma 0 Calma -- -- -- 99
2017-10-02 08:00:00 15.6 0 Calma 0 Calma -- -- -- 99
2017-10-02 07:00:00 15.5 0 Calma 0 Calma 0 -- -- 99
2017-10-02 06:00:00 15.4 0 Calma 0 Calma -- -- -- 98
2017-10-02 05:00:00 15.4 0 Calma 0 Calma 0.2 -- -- 98
2017-10-02 04:00:00 15.4 0 Calma 0 Calma -- -- -- 98
2017-10-02 03:00:00 15.4 0 Calma 0 Calma 0.2 -- -- 97
2017-10-02 02:00:00 15.5 0 Calma 6 Sudeste 0 -- -- 95
2017-10-02 01:00:00 15.4 2 Sudeste 5 Sudeste 0 -- -- 95
2017-10-02 00:00:00 15.5 0 Calma 5 Este 0 -- -- 93
2017-10-01 23:00:00 15.5 3 Sudeste 5 Sudeste 0 -- -- 92
2017-10-01 22:00:00 15.6 0 Calma 8 Sudeste 0 -- -- 91
2017-10-01 21:00:00 16.4 4 Sudeste 9 Sudeste 0 -- -- 88
2017-10-01 20:00:00 17.8 3 Sur 12 Norte 0 -- -- 85
2017-10-01 19:00:00 19.1 6 Norte 13 Norte 0 -- -- 77
2017-10-01 18:00:00 20.1 0 Calma 5 Sur 0 -- -- 76
2017-10-01 17:00:00 21 2 Sur 3 Sur 0 -- -- 69
2017-10-01 16:00:00 21.1 0 Calma 8 Noroeste 0 -- -- 64
2017-10-01 15:00:00 20.8 2 Noroeste 5 Noroeste 0 -- -- 64
2017-10-01 14:00:00 18.8 2 Oeste 4 Oeste 0 -- -- 70
2017-10-01 13:00:00 16.8 2 Noroeste 5 Sur 0 -- -- 84
2017-10-01 12:00:00 15.2 4 Sudeste 7 Sudeste 0 -- -- 89
2017-10-01 11:00:00 13.7 3 Sudeste 6 Sudeste 0 -- -- 94
2017-10-01 10:00:00 12 3 Sudeste 5 Sur 0 -- -- 100
2017-10-01 09:00:00 10.9 0 Calma 6 Sur 0 -- -- 99
2017-10-01 08:00:00 10.6 4 Sudeste 8 Sudeste 0 -- -- 99
2017-10-01 07:00:00 10.5 0 Calma 10 Sudeste 0 -- -- 98
2017-10-01 06:00:00 11.1 4 Sudeste 8 Este 0 -- -- 98
2017-10-01 05:00:00 11.9 5 Sudeste 9 Sudeste 0 -- -- 97
2017-10-01 04:00:00 12.4 0 Calma 7 Sudeste 0 -- -- 97
2017-10-01 03:00:00 12.1 0 Calma 6 Sudeste 0 -- -- 97
2017-10-01 02:00:00 12 2 Sudeste 9 Sudeste 0 -- -- 96
2017-10-01 01:00:00 11.8 6 Sudeste 10 Sudeste 0 -- -- 96
2017-10-01 00:00:00 13 0 Calma 8 Sudeste 0 -- -- 95
2017-09-30 23:00:00 12.7 5 Sudeste 9 Sudeste 0 -- -- 96
2017-09-30 22:00:00 12.3 0 Calma 6 Sur 0 -- -- 97
2017-09-30 21:00:00 12.2 4 Sudeste 9 Sudeste 0 -- -- 95
2017-09-30 20:00:00 13.8 0 Calma 9 Norte 0 -- -- 91
2017-09-30 19:00:00 14.7 6 Norte 17 Noroeste 0 -- -- 88
2017-09-30 18:00:00 15.6 6 Norte 18 Noroeste 0 -- -- 85
2017-09-30 17:00:00 16.4 8 Noroeste 19 Noroeste 0 -- -- 80
2017-09-30 16:00:00 17.2 7 Noroeste 13 Noroeste 0 -- -- 75
2017-09-30 15:00:00 16.3 5 Noroeste 8 Noroeste 0 -- -- 82
2017-09-30 14:00:00 14.5 0 Calma 12 Noroeste 0 -- -- 89
2017-09-30 13:00:00 13.3 4 Noroeste 9 Noroeste 0 -- -- 96
2017-09-30 12:00:00 12.8 4 Noroeste 8 Noroeste 0 -- -- 99
2017-09-30 11:00:00 12.3 4 Noroeste 9 Noroeste 0.2 -- -- 100
2017-09-30 10:00:00 11.9 3 Norte 12 Nordeste 0.2 -- -- 100
2017-09-30 09:00:00 12.1 4 Norte 12 Noroeste 0 -- -- 100
2017-09-30 08:00:00 12.5 0 Calma 6 Noroeste 0 -- -- 99
2017-09-30 07:00:00 12.6 0 Calma 12 Norte 0 -- -- 99
2017-09-30 06:00:00 13.1 4 Norte 8 Norte 0 -- -- 99
2017-09-30 05:00:00 13.2 0 Calma 4 Noroeste 0.2 -- -- 98
2017-09-30 04:00:00 13.2 3 Norte 10 Norte 0 -- -- 98
2017-09-30 03:00:00 13.5 2 Noroeste 4 Noroeste 0 -- -- 98
2017-09-30 02:00:00 13.4 0 Calma 10 Noroeste 0 -- -- 98
2017-09-30 01:00:00 13.6 4 Norte 10 Norte 0.2 -- -- 98
2017-09-30 00:00:00 14 5 Norte 11 Norte 0.4 -- -- 98
2017-09-29 23:00:00 14.8 5 Norte 10 Noroeste 0.2 -- -- 97
2017-09-29 22:00:00 15.2 3 Noroeste 10 Noroeste 0 -- -- 96
2017-09-29 21:00:00 15.5 3 Norte 10 Norte 0 -- -- 93
2017-09-29 20:00:00 16 4 Norte 12 Noroeste 0 -- -- 91
2017-09-29 19:00:00 17.1 6 Norte 15 Norte 0 -- -- 87
2017-09-29 18:00:00 18.5 5 Norte 18 Noroeste 0 -- -- 80
2017-09-29 17:00:00 20.4 6 Norte 22 Noroeste 0 -- -- 74
2017-09-29 16:00:00 22.7 9 Noroeste 22 Noroeste 0 -- -- 66
2017-09-29 15:00:00 22.6 10 Noroeste 23 Noroeste 0 -- -- 64
2017-09-29 14:00:00 22 9 Noroeste 18 Noroeste 0 -- -- 66
2017-09-29 13:00:00 20.8 10 Noroeste 19 Noroeste 0 -- -- 69
2017-09-29 12:00:00 19.7 3 Sudeste 5 Sudeste 0 -- -- 68
2017-09-29 11:00:00 16.1 0 Calma 11 Noroeste 0 -- -- 84
2017-09-29 10:00:00 11.3 5 Sudeste 13 Sudeste 0 -- -- 90
2017-09-29 09:00:00 10.3 8 Sudeste 12 Sudeste 0 -- -- 90
2017-09-29 08:00:00 10.2 0 Calma 15 Sudeste 0 -- -- 89
2017-09-29 07:00:00 9.6 8 Sudeste 13 Sudeste 0 -- -- 91
2017-09-29 06:00:00 10 6 Sudeste 12 Sudeste 0 -- -- 89
2017-09-29 05:00:00 10.5 7 Sudeste 13 Sudeste 0 -- -- 86
2017-09-29 04:00:00 10.2 2 Sudeste 10 Sudeste 0 -- -- 90
2017-09-29 03:00:00 11 7 Sudeste 12 Sudeste 0 -- -- 87
2017-09-29 02:00:00 11.1 7 Sudeste 12 Sudeste 0 -- -- 88
2017-09-29 01:00:00 11.8 8 Sudeste 13 Sudeste 0 -- -- 91
2017-09-29 00:00:00 12.2 4 Sudeste 11 Sudeste 0 -- -- 91
2017-09-28 23:00:00 12.7 8 Sudeste 11 Sudeste 0 -- -- 90
2017-09-28 22:00:00 13.8 6 Sudeste 11 Sudeste 0 -- -- 87
2017-09-28 21:00:00 14.8 6 Sudeste 10 Sudeste 0 -- -- 81
2017-09-28 20:00:00 16.4 6 Sudeste 15 Sudeste 0 -- -- 75
2017-09-28 19:00:00 17.9 4 Sudeste 9 Sudeste 0 -- -- 69
2017-09-28 18:00:00 20.1 5 Sudeste 8 Sudeste 0 -- -- 59
2017-09-28 17:00:00 24.9 3 Sudoeste 18 Sudeste 0 -- -- 39
2017-09-28 16:00:00 26.3 5 Sudeste 22 Nordeste 0 -- -- 29
2017-09-28 15:00:00 26.4 10 Este 25 Este 0 -- -- 30
2017-09-28 14:00:00 25.2 5 Oeste 12 Noroeste 0 -- -- 37
2017-09-28 13:00:00 22.9 3 Noroeste 8 Noroeste 0 -- -- 52
2017-09-28 12:00:00 20.4 3 Norte 9 Sudeste 0 -- -- 64
2017-09-28 11:00:00 16 5 Sudeste 13 Este 0 -- -- 72
2017-09-28 10:00:00 12.2 6 Sudeste 13 Sudeste 0 -- -- 83
2017-09-28 09:00:00 11.7 8 Sudeste 15 Sudeste 0 -- -- 80
2017-09-28 08:00:00 10.8 6 Sudeste 13 Sudeste 0 -- -- 86
2017-09-28 07:00:00 10.1 8 Sudeste 13 Sudeste 0 -- -- 90
2017-09-28 06:00:00 10.4 8 Sudeste 17 Sudeste 0 -- -- 91
2017-09-28 05:00:00 10.3 5 Sudeste 11 Sudeste 0 -- -- 95
2017-09-28 04:00:00 10.9 4 Sudeste 12 Sudeste 0 -- -- 96
2017-09-28 03:00:00 11 6 Sudeste 11 Sudeste 0 -- -- 97
2017-09-28 02:00:00 11.2 5 Sudeste 12 Sudeste 0 -- -- 96
2017-09-28 01:00:00 11.4 3 Sudeste 10 Sudeste 0 -- -- 96
2017-09-28 00:00:00 12.3 4 Sur 11 Sudeste 0 -- -- 95
2017-09-27 23:00:00 12.9 6 Sudeste 11 Sudeste 0 -- -- 94
2017-09-27 22:00:00 13.5 6 Sudeste 10 Sudeste 0 -- -- 94
2017-09-27 21:00:00 14.5 3 Sudeste 9 Sudeste 0 -- -- 90
2017-09-27 20:00:00 16 5 Sudeste 9 Sudeste 0 -- -- 88
2017-09-27 19:00:00 18 5 Sudeste 9 Noroeste 0 -- -- 82
2017-09-27 18:00:00 20.3 4 Noroeste 16 Noroeste 0 -- -- 70
2017-09-27 17:00:00 23 8 Norte 22 Noroeste 0 -- -- 62
2017-09-27 16:00:00 23.2 5 Noroeste 13 Noroeste 0 -- -- 60
2017-09-27 15:00:00 22.8 9 Noroeste 17 Noroeste 0 -- -- 57
2017-09-27 14:00:00 22.4 4 Noroeste 6 Noroeste 0 -- -- 51
2017-09-27 13:00:00 20.4 3 Noroeste 14 Noroeste 0 -- -- 55
2017-09-27 12:00:00 18.1 7 Norte 13 Norte 0 -- -- 69
2017-09-27 11:00:00 13.4 0 Calma 9 Sudeste 0 -- -- 91
2017-09-27 10:00:00 9.2 3 Sudeste 10 Sudeste 0 -- -- 95
2017-09-27 09:00:00 8.4 3 Sudeste 10 Sudeste 0 -- -- 95
2017-09-27 08:00:00 8.6 8 Sudeste 12 Sudeste 0 -- -- 94
2017-09-27 07:00:00 8.2 0 Calma 10 Sudeste 0 -- -- 96
2017-09-27 06:00:00 9.1 3 Sur 12 Sudeste 0 -- -- 93
2017-09-27 05:00:00 9.4 4 Sudeste 14 Sudeste 0 -- -- 93
2017-09-27 04:00:00 9.2 3 Sudeste 16 Sudeste 0 -- -- 95
2017-09-27 03:00:00 9.2 8 Sudeste 14 Sudeste 0 -- -- 97
2017-09-27 02:00:00 9.8 5 Sudeste 9 Sudeste 0 -- -- 96
2017-09-27 01:00:00 10.3 4 Sudeste 9 Sudeste 0 -- -- 96
2017-09-27 00:00:00 10.8 4 Sudeste 8 Sudeste 0 -- -- 96
2017-09-26 23:00:00 11.9 3 Sudeste 7 Sudeste 0 -- -- 93
2017-09-26 22:00:00 13.8 4 Sudeste 6 Sudeste 0 -- -- 91
2017-09-26 21:00:00 15 3 Sudeste 6 Sudeste 0 -- -- 89
2017-09-26 20:00:00 15.8 5 Sudeste 7 Sudeste 0 -- -- 86
2017-09-26 19:00:00 16.8 0 Calma 14 Noroeste 0 -- -- 81
2017-09-26 18:00:00 18.2 2 Oeste 17 Norte 0 -- -- 75
2017-09-26 17:00:00 21.1 8 Noroeste 17 Noroeste 0 -- -- 62
2017-09-26 16:00:00 21.2 9 Noroeste 20 Noroeste 0 -- -- 58
2017-09-26 15:00:00 20.5 9 Noroeste 17 Noroeste 0 -- -- 57
2017-09-26 14:00:00 19.5 8 Noroeste 15 Noroeste 0 -- -- 62
2017-09-26 13:00:00 17.5 4 Oeste 13 Noroeste 0 -- -- 62
2017-09-26 12:00:00 15.2 4 Noroeste 7 Oeste 0 -- -- 73
2017-09-26 11:00:00 10.9 0 Calma 5 Sudeste 0 -- -- 100
2017-09-26 10:00:00 7.1 0 Calma 9 Sur 0 -- -- 100
2017-09-26 09:00:00 6.3 2 Sudeste 8 Sudeste 0 -- -- 99
2017-09-26 08:00:00 6.2 2 Sudeste 4 Este 0 -- -- 99
2017-09-26 07:00:00 6.7 3 Sudeste 10 Sudeste 0 -- -- 98
2017-09-26 06:00:00 7.1 4 Sudeste 8 Sudeste 0 -- -- 98
2017-09-26 05:00:00 7.4 4 Sudeste 8 Sudeste 0 -- -- 97
2017-09-26 04:00:00 8.2 3 Sudeste 8 Sudeste 0 -- -- 97
2017-09-26 03:00:00 9 5 Sudeste 8 Sudeste 0 -- -- 96
2017-09-26 02:00:00 10.5 4 Sudeste 8 Sudeste 0 -- -- 94
2017-09-26 01:00:00 11.4 0 Calma 3 Sur 0 -- -- 93
2017-09-26 00:00:00 12.5 0 Calma 3 Sur 0 -- -- 95
2017-09-25 23:00:00 12.6 2 Noroeste 3 Noroeste 0 -- -- 95
2017-09-25 22:00:00 13.3 0 Calma 5 Noroeste 0 -- -- 92
2017-09-25 21:00:00 13.8 2 Noroeste 8 Norte 0 -- -- 90
2017-09-25 20:00:00 14.5 5 Norte 12 Norte 0 -- -- 86
2017-09-25 19:00:00 15.6 6 Norte 15 Noroeste 0 -- -- 81
2017-09-25 18:00:00 16.4 6 Noroeste 13 Noroeste 0 -- -- 75
2017-09-25 17:00:00 16.9 5 Noroeste 16 Noroeste 0 -- -- 73
2017-09-25 16:00:00 17.7 10 Noroeste 19 Noroeste 0 -- -- 68
2017-09-25 15:00:00 16.4 5 Noroeste 13 Noroeste 0 -- -- 73
2017-09-25 14:00:00 15.9 6 Noroeste 13 Noroeste 0 -- -- 75
2017-09-25 13:00:00 15.8 2 Norte 8 Noroeste 0 -- -- 75
2017-09-25 12:00:00 14.4 3 Noroeste 7 Noroeste 0 -- -- 84
2017-09-25 11:00:00 13.3 0 Calma 6 Sudeste 0 -- -- 95
2017-09-25 10:00:00 11.8 3 Sudeste 8 Este 0 -- -- 98
2017-09-25 09:00:00 11.7 0 Calma 4 Norte 0 -- -- 99
2017-09-25 08:00:00 11.7 3 Noroeste 7 Noroeste 0 -- -- 99
2017-09-25 07:00:00 11.9 0 Calma 4 Noroeste 0 -- -- 98
2017-09-25 06:00:00 12.1 3 Noroeste 8 Sudeste 0 -- -- 98
2017-09-25 05:00:00 11.9 4 Sudeste 9 Sudeste 0.2 -- -- 98
2017-09-25 04:00:00 11.9 0 Calma 4 Sudeste 0 -- -- 96
2017-09-25 03:00:00 12.5 0 Calma 4 Norte 0 -- -- 98
2017-09-25 02:00:00 12.5 0 Calma 8 Sudeste 0 -- -- 97
2017-09-25 01:00:00 12.8 3 Sudeste 5 Este 0 -- -- 96
2017-09-25 00:00:00 12.8 0 Calma 19 Sudoeste 0 -- -- 94
2017-09-24 23:00:00 13.2 12 Sudeste 26 Sudeste 2.4 -- -- 87
2017-09-24 22:00:00 15.1 11 Norte 23 Noroeste 0.2 -- -- 78
2017-09-24 21:00:00 16.9 5 Norte 13 Noroeste 0 -- -- 80
2017-09-24 20:00:00 18.5 4 Norte 13 Nordeste 0 -- -- 78
2017-09-24 19:00:00 20 5 Norte 13 Noroeste 0 -- -- 74
2017-09-24 18:00:00 21 4 Norte 20 Norte 0 -- -- 74
2017-09-24 17:00:00 22.7 7 Norte 20 Noroeste 0 -- -- 66
2017-09-24 16:00:00 24.9 3 Norte 11 Sur 0 -- -- 30
2017-09-24 15:00:00 24.5 6 Sur 18 Sur 0 -- -- 44
2017-09-24 14:00:00 25.2 8 Sur 19 Sudeste 0 -- -- 28
2017-09-24 13:00:00 21.6 4 Noroeste 8 Noroeste 0 -- -- 60
2017-09-24 12:00:00 19.3 3 Sudeste 8 Sudeste 0 -- -- 65
2017-09-24 11:00:00 14.5 2 Norte 8 Sudeste 0 -- -- 87
2017-09-24 10:00:00 10.2 4 Noroeste 10 Sudeste 0 -- -- 93
2017-09-24 09:00:00 8.5 0 Calma 9 Sudeste 0 -- -- 96
2017-09-24 08:00:00 8.7 2 Sur 10 Sudeste 0 -- -- 93
2017-09-24 07:00:00 9.4 8 Sudeste 13 Sudeste 0 -- -- 91
2017-09-24 06:00:00 9.4 6 Sudeste 12 Sudeste 0 -- -- 95
2017-09-24 05:00:00 10.3 6 Sudeste 12 Sur 0 -- -- 96
2017-09-24 04:00:00 10.2 6 Sudeste 10 Sudeste 0 -- -- 98
2017-09-24 03:00:00 10.7 3 Sudeste 11 Sudeste 0 -- -- 96
2017-09-24 02:00:00 11 5 Sudeste 9 Sudeste 0 -- -- 96
2017-09-24 01:00:00 11.6 4 Sudeste 7 Sudeste 0 -- -- 95
2017-09-24 00:00:00 12.8 3 Sudeste 8 Sudeste 0 -- -- 94
2017-09-23 23:00:00 13.6 5 Sudeste 9 Este 0 -- -- 95
2017-09-23 22:00:00 14.6 3 Sudeste 6 Sudeste 0 -- -- 91
2017-09-23 21:00:00 16.3 0 Calma 6 Noroeste 0 -- -- 87
2017-09-23 20:00:00 18.2 4 Norte 13 Norte 0 -- -- 81
2017-09-23 19:00:00 19.9 5 Norte 17 Noroeste 0 -- -- 76
2017-09-23 18:00:00 21.7 6 Norte 15 Oeste 0 -- -- 70
2017-09-23 17:00:00 23.2 3 Sur 8 Sur 0 -- -- 49
2017-09-23 16:00:00 24.8 2 Sur 6 Sur 0 -- -- 42
2017-09-23 15:00:00 25.2 4 Noroeste 12 Oeste 0 -- -- 42
2017-09-23 14:00:00 24.3 4 Noroeste 13 Sudeste 0 -- -- 52
2017-09-23 13:00:00 23.6 5 Sudeste 12 Sudeste 0 -- -- 42
2017-09-23 12:00:00 19.8 4 Este 9 Nordeste 0 -- -- 74
2017-09-23 11:00:00 14.6 3 Este 10 Sudeste 0 -- -- 91
2017-09-23 10:00:00 10.3 5 Sudeste 10 Este 0 -- -- 100
2017-09-23 09:00:00 9.9 2 Sudeste 8 Sudeste 0 -- -- 99
2017-09-23 08:00:00 9.7 0 Calma 6 Sudeste 0 -- -- 99
2017-09-23 07:00:00 10 0 Calma 8 Norte 0 -- -- 97
2017-09-23 06:00:00 10.9 4 Norte 13 Norte 0 -- -- 97
2017-09-23 05:00:00 10.2 3 Sudeste 11 Sudeste 0 -- -- 99
2017-09-23 04:00:00 9.6 0 Calma 9 Este 0 -- -- 99
2017-09-23 03:00:00 9.6 5 Sudeste 10 Este 0 -- -- 98
2017-09-23 02:00:00 9.9 5 Sudeste 8 Sudeste 0 -- -- 97
2017-09-23 01:00:00 10.5 5 Sudeste 9 Sudeste 0 -- -- 96
2017-09-23 00:00:00 12.2 2 Sur 9 Sur 0 -- -- 92
2017-09-22 23:00:00 14.1 0 Calma 3 Norte 0 -- -- 93
2017-09-22 22:00:00 14.3 0 Calma 7 Norte 0 -- -- 92
2017-09-22 21:00:00 14.5 3 Norte 10 Noroeste 0 -- -- 90
2017-09-22 20:00:00 15.1 4 Norte 11 Noroeste 0 -- -- 87
2017-09-22 19:00:00 15.8 4 Norte 13 Norte 0 -- -- 83
2017-09-22 18:00:00 16.8 8 Noroeste 15 Norte 0 -- -- 79
2017-09-22 17:00:00 19 5 Noroeste 13 Noroeste 0 -- -- 71
2017-09-22 16:00:00 18.7 5 Noroeste 14 Noroeste 0 -- -- 72
2017-09-22 15:00:00 17.5 6 Noroeste 14 Noroeste 0 -- -- 71
2017-09-22 14:00:00 16.7 8 Noroeste 13 Noroeste 0 -- -- 75
2017-09-22 13:00:00 15.4 4 Noroeste 9 Noroeste 0 -- -- 78
2017-09-22 12:00:00 13.4 3 Noroeste 9 Noroeste 0 -- -- 87
2017-09-22 11:00:00 12.8 4 Noroeste 8 Noroeste 0 -- -- 90
2017-09-22 10:00:00 11.2 0 Calma 5 Sudeste 0.2 -- -- 97
2017-09-22 09:00:00 10.6 3 Sudeste 8 Sudeste 0 -- -- 99
2017-09-22 08:00:00 10.7 0 Calma 6 Sudeste 0 -- -- 99
2017-09-22 07:00:00 11.1 0 Calma 4 Noroeste 0 -- -- 100
2017-09-22 06:00:00 11.1 0 Calma 8 Norte 0 -- -- 100
2017-09-22 05:00:00 11.2 3 Norte 6 Norte 0 -- -- 100
2017-09-22 04:00:00 11.2 3 Norte 5 Norte 0.2 -- -- 99
2017-09-22 03:00:00 11.4 2 Noroeste 11 Nordeste 0 -- -- 100
2017-09-22 02:00:00 11.5 6 Norte 11 Noroeste 0 -- -- 99
2017-09-22 01:00:00 11.8 4 Norte 15 Norte 0.2 -- -- 99
2017-09-22 00:00:00 12.1 5 Norte 12 Norte 0.2 -- -- 99
2017-09-21 23:00:00 12.3 6 Norte 15 Norte 0 -- -- 99
2017-09-21 22:00:00 12.8 4 Norte 10 Norte 0.6 -- -- 98
2017-09-21 21:00:00 13 5 Norte 13 Norte 0 -- -- 97
2017-09-21 20:00:00 13.6 5 Norte 15 Norte 0 -- -- 93
2017-09-21 19:00:00 14.2 6 Norte 17 Norte 0 -- -- 91
2017-09-21 18:00:00 15.6 6 Norte 16 Norte 0 -- -- 87
2017-09-21 17:00:00 16.4 4 Norte 10 Norte 0 -- -- 83
2017-09-21 16:00:00 17 5 Norte 18 Noroeste 0 -- -- 79
2017-09-21 15:00:00 17.7 7 Norte 17 Noroeste 0 -- -- 75
2017-09-21 14:00:00 18.2 7 Noroeste 17 Noroeste 0 -- -- 75
2017-09-21 13:00:00 17.5 4 Noroeste 9 Noroeste 0 -- -- 75
2017-09-21 12:00:00 16.1 3 Noroeste 7 Noroeste 0 -- -- 83
2017-09-21 11:00:00 13.7 2 Sur 4 Sudeste 0 -- -- 92
2017-09-21 10:00:00 11.7 2 Sudeste 8 Sudeste 0 -- -- 99
2017-09-21 09:00:00 8.8 0 Calma 10 Sudeste 0 -- -- 99
2017-09-21 08:00:00 8.7 4 Sudeste 10 Sudeste 0 -- -- 98
2017-09-21 07:00:00 8.6 4 Sudeste 9 Sudeste 0 -- -- 98
2017-09-21 06:00:00 9 3 Sudeste 10 Sudeste 0 -- -- 98
2017-09-21 05:00:00 9.3 0 Calma 11 Sudeste 0 -- -- 96
2017-09-21 04:00:00 10 6 Sudeste 10 Sur 0 -- -- 96
2017-09-21 03:00:00 10.3 6 Sudeste 11 Sudeste 0 -- -- 99
2017-09-21 02:00:00 9.9 0 Calma 9 Sur 0 -- -- 96
2017-09-21 01:00:00 10.7 4 Sudeste 9 Sudeste 0 -- -- 97
2017-09-21 00:00:00 11.4 4 Sudeste 8 Sudeste 0 -- -- 96
2017-09-20 23:00:00 12 5 Sudeste 10 Sudeste 0 -- -- 95
2017-09-20 22:00:00 12.7 6 Sudeste 10 Sudeste 0 -- -- 94
2017-09-20 21:00:00 13.8 5 Sudeste 9 Sudeste 0 -- -- 91
2017-09-20 20:00:00 15.4 6 Sudeste 13 Sudeste 0 -- -- 88
2017-09-20 19:00:00 17.4 3 Sur 6 Sudeste 0 -- -- 82
2017-09-20 18:00:00 20.2 0 Calma 13 Norte 0 -- -- 70
2017-09-20 17:00:00 22 6 Norte 16 Norte 0 -- -- 58
2017-09-20 16:00:00 22.1 9 Noroeste 17 Noroeste 0 -- -- 58
2017-09-20 15:00:00 21.6 8 Noroeste 17 Noroeste 0 -- -- 57
2017-09-20 14:00:00 20.5 8 Noroeste 13 Noroeste 0 -- -- 58
2017-09-20 13:00:00 18.9 4 Noroeste 8 Noroeste 0 -- -- 59
2017-09-20 12:00:00 16.2 4 Noroeste 9 Noroeste 0 -- -- 70
2017-09-20 11:00:00 11.7 0 Calma 5 Este 0 -- -- 100
2017-09-20 10:00:00 7.3 0 Calma 8 Sudeste 0 -- -- 100
2017-09-20 09:00:00 6.3 3 Sudeste 9 Sudeste 0 -- -- 100
2017-09-20 08:00:00 5.6 3 Sudeste 8 Sudeste 0 -- -- 99
2017-09-20 07:00:00 5.8 3 Sudeste 7 Sudeste 0 -- -- 99
2017-09-20 06:00:00 6 3 Sudeste 6 Sudeste 0 -- -- 98
2017-09-20 05:00:00 6.6 4 Sudeste 9 Sudeste 0 -- -- 98
2017-09-20 04:00:00 6.9 3 Sudeste 8 Sudeste 0 -- -- 97
2017-09-20 03:00:00 7.3 7 Sudeste 9 Sudeste 0 -- -- 97
2017-09-20 02:00:00 7.9 5 Sudeste 10 Sudeste 0 -- -- 96
2017-09-20 01:00:00 8.4 6 Sudeste 10 Este 0 -- -- 95
2017-09-20 00:00:00 9.2 8 Sudeste 12 Sudeste 0 -- -- 94